Time;durP1;ratioP1;P1;durP2;ratioP2;P2;SDS_P1;SDS_P2;PMS_P1;PMS_P2;Temp;Humidity;BMP_temperature;BMP_pressure;BME280_temperature;BME280_humidity;BME280_pressure;Samples;Min_cycle;Max_cycle;Signal;HPM_P1;HPM_P2
2023/04/24 00:00:05;;;;;;;11.70;7.97;;;10.30;99.90;;;;;;5030993;28;20041;-74
2023/04/24 00:02:32;;;;;;;11.27;7.28;;;10.30;99.90;;;;;;5018114;28;20397;-74
2023/04/24 00:05:02;;;;;;;9.15;7.18;;;10.30;99.90;;;;;;5040134;28;20044;-74
2023/04/24 00:07:29;;;;;;;13.13;8.15;;;10.30;99.90;;;;;;5028980;28;20033;-75
2023/04/24 00:09:55;;;;;;;11.85;8.18;;;10.30;99.90;;;;;;5034162;28;20086;-75
2023/04/24 00:12:20;;;;;;;10.37;7.50;;;10.30;99.90;;;;;;5041356;28;20603;-75
2023/04/24 00:14:46;;;;;;;10.27;8.23;;;10.30;99.90;;;;;;5037502;28;20033;-75
2023/04/24 00:17:13;;;;;;;11.83;8.63;;;10.30;99.90;;;;;;5029630;28;20076;-75
2023/04/24 00:19:39;;;;;;;10.45;8.38;;;10.40;99.90;;;;;;5035415;28;20045;-75
2023/04/24 00:22:05;;;;;;;10.30;8.43;;;10.40;99.90;;;;;;5051964;28;20389;-75
2023/04/24 00:24:31;;;;;;;12.13;8.13;;;10.40;99.90;;;;;;5037809;28;20114;-75
2023/04/24 00:26:57;;;;;;;9.75;8.60;;;10.30;99.90;;;;;;5030579;28;20342;-75
2023/04/24 00:29:22;;;;;;;11.60;8.53;;;10.30;99.90;;;;;;5036023;28;20046;-75
2023/04/24 00:31:48;;;;;;;11.93;8.50;;;10.30;99.90;;;;;;5035952;28;20041;-75
2023/04/24 00:34:14;;;;;;;10.70;8.23;;;10.20;99.90;;;;;;5052496;28;20055;-75
2023/04/24 00:36:40;;;;;;;10.03;8.53;;;10.20;99.90;;;;;;5027289;28;20045;-75
2023/04/24 00:39:08;;;;;;;10.13;8.43;;;10.20;99.90;;;;;;5050386;28;20290;-75
2023/04/24 00:41:34;;;;;;;11.13;8.73;;;10.20;99.90;;;;;;5047778;28;20052;-75
2023/04/24 00:44:00;;;;;;;12.43;8.43;;;10.20;99.90;;;;;;5048632;28;20045;-75
2023/04/24 00:46:26;;;;;;;11.20;9.10;;;10.20;99.90;;;;;;5031616;28;20300;-75
2023/04/24 00:48:52;;;;;;;12.77;8.53;;;10.20;99.90;;;;;;5034734;28;20127;-75
2023/04/24 00:51:18;;;;;;;11.50;8.37;;;10.10;99.90;;;;;;5037924;28;21226;-75
2023/04/24 00:53:43;;;;;;;10.77;8.30;;;10.10;99.90;;;;;;5052297;28;20075;-75
2023/04/24 00:56:10;;;;;;;10.60;8.30;;;10.10;99.90;;;;;;5028258;28;20385;-75
2023/04/24 00:58:36;;;;;;;9.93;8.48;;;10.10;99.90;;;;;;5034108;28;20049;-75
2023/04/24 01:01:06;;;;;;;10.23;8.23;;;10.10;99.90;;;;;;5028499;28;20048;-76
2023/04/24 01:03:33;;;;;;;9.73;8.73;;;10.10;99.90;;;;;;5030997;28;20290;-76
2023/04/24 01:05:59;;;;;;;12.25;9.55;;;10.10;99.90;;;;;;5020072;28;20034;-75
2023/04/24 01:08:27;;;;;;;11.13;9.25;;;10.10;99.90;;;;;;5022692;28;20041;-75
2023/04/24 01:10:53;;;;;;;9.38;8.15;;;10.10;99.90;;;;;;5046281;28;20048;-75
2023/04/24 01:13:20;;;;;;;10.80;8.47;;;10.10;99.90;;;;;;5046982;28;20488;-75
2023/04/24 01:15:47;;;;;;;8.52;7.63;;;10.10;99.90;;;;;;5029829;28;20087;-76
2023/04/24 01:18:13;;;;;;;10.57;8.30;;;10.10;99.90;;;;;;5022800;28;20037;-76
2023/04/24 01:20:41;;;;;;;10.63;9.10;;;10.10;99.90;;;;;;5044015;28;20045;-76
2023/04/24 01:23:08;;;;;;;11.80;9.23;;;10.10;99.90;;;;;;5048933;28;20071;-75
2023/04/24 01:25:34;;;;;;;10.77;9.03;;;10.20;99.90;;;;;;5032759;28;20075;-76
2023/04/24 01:28:00;;;;;;;11.10;9.55;;;10.20;99.90;;;;;;5028087;28;20296;-76
2023/04/24 01:30:27;;;;;;;12.30;9.60;;;10.20;99.90;;;;;;5039617;28;20408;-75
2023/04/24 01:32:53;;;;;;;10.93;9.32;;;10.20;99.90;;;;;;5033407;28;20052;-75
2023/04/24 01:35:20;;;;;;;12.27;9.23;;;10.20;99.90;;;;;;5045509;28;20038;-76
2023/04/24 01:37:45;;;;;;;11.50;9.23;;;10.20;99.90;;;;;;5027433;28;20287;-75
2023/04/24 01:40:11;;;;;;;11.73;8.67;;;10.20;99.90;;;;;;5042187;28;20558;-76
2023/04/24 01:42:38;;;;;;;10.05;7.95;;;10.20;99.90;;;;;;5029910;28;21214;-76
2023/04/24 01:45:05;;;;;;;10.80;8.83;;;10.20;99.90;;;;;;5031083;28;20877;-76
2023/04/24 01:47:31;;;;;;;10.43;8.20;;;10.20;99.90;;;;;;5047673;28;20299;-76
2023/04/24 01:49:58;;;;;;;12.30;8.50;;;10.20;99.90;;;;;;5051416;28;20576;-76
2023/04/24 01:52:24;;;;;;;10.50;7.77;;;10.20;99.90;;;;;;5031755;28;20290;-75
2023/04/24 01:54:50;;;;;;;9.07;7.57;;;10.20;99.90;;;;;;5025964;28;20287;-75
2023/04/24 01:57:16;;;;;;;11.33;7.70;;;10.20;99.90;;;;;;5031317;28;20102;-75
2023/04/24 01:59:43;;;;;;;8.23;7.22;;;10.20;99.90;;;;;;5034306;28;20081;-75
2023/04/24 02:02:08;;;;;;;9.52;6.88;;;10.20;99.90;;;;;;5021190;28;20055;-76
2023/04/24 02:04:34;;;;;;;8.43;6.23;;;10.20;99.90;;;;;;5031931;28;20433;-76
2023/04/24 02:07:00;;;;;;;8.37;7.03;;;10.10;99.90;;;;;;5023851;28;20489;-76
2023/04/24 02:09:26;;;;;;;8.67;6.53;;;10.20;99.90;;;;;;5027151;28;20088;-76
2023/04/24 02:11:51;;;;;;;8.97;6.90;;;10.10;99.90;;;;;;5028874;28;20044;-76
2023/04/24 02:14:17;;;;;;;9.40;6.33;;;10.10;99.90;;;;;;5024599;28;20034;-76
2023/04/24 02:16:43;;;;;;;8.60;6.87;;;10.10;99.90;;;;;;5048299;28;20072;-76
2023/04/24 02:19:09;;;;;;;11.37;6.90;;;10.10;99.90;;;;;;5027822;28;20033;-76
2023/04/24 02:21:35;;;;;;;9.50;7.32;;;10.10;99.90;;;;;;5025405;28;20033;-75
2023/04/24 02:24:01;;;;;;;9.10;7.53;;;10.10;99.90;;;;;;5020211;28;20063;-76
2023/04/24 02:26:27;;;;;;;9.77;7.72;;;10.10;99.90;;;;;;5027052;28;20037;-76
2023/04/24 02:28:53;;;;;;;9.23;7.47;;;10.10;99.90;;;;;;5032781;28;20128;-76
2023/04/24 02:31:19;;;;;;;9.17;7.07;;;10.10;99.90;;;;;;5031186;28;20045;-76
2023/04/24 02:33:44;;;;;;;7.23;6.33;;;10.10;99.90;;;;;;5024610;28;20104;-76
2023/04/24 02:36:10;;;;;;;8.83;6.43;;;10.10;99.90;;;;;;5027933;28;20052;-75
2023/04/24 02:38:36;;;;;;;5.93;4.33;;;10.10;99.90;;;;;;5031838;28;20544;-76
2023/04/24 02:41:05;;;;;;;6.50;4.83;;;10.10;99.90;;;;;;5022892;28;20072;-76
2023/04/24 02:43:32;;;;;;;6.90;5.15;;;10.10;99.90;;;;;;5038782;28;20394;-76
2023/04/24 02:45:58;;;;;;;6.30;4.90;;;10.00;99.90;;;;;;5030362;28;20105;-75
2023/04/24 02:48:23;;;;;;;8.23;5.30;;;10.00;99.90;;;;;;5021991;28;20070;-75
2023/04/24 02:50:50;;;;;;;7.67;5.10;;;9.90;99.90;;;;;;5038690;28;20036;-76
2023/04/24 02:53:16;;;;;;;6.95;4.43;;;9.90;99.90;;;;;;5050007;28;20037;-75
2023/04/24 02:55:42;;;;;;;7.95;5.05;;;9.80;99.90;;;;;;5033010;28;20040;-76
2023/04/24 02:58:08;;;;;;;6.47;4.43;;;9.80;99.90;;;;;;5023283;28;20045;-75
2023/04/24 03:00:33;;;;;;;6.50;4.27;;;9.80;99.90;;;;;;5045359;28;20541;-75
2023/04/24 03:02:59;;;;;;;7.17;4.20;;;9.80;99.90;;;;;;5042948;28;20044;-75
2023/04/24 03:05:25;;;;;;;7.57;4.33;;;9.70;99.90;;;;;;5037323;28;20068;-75
2023/04/24 03:07:52;;;;;;;7.80;5.00;;;9.70;99.90;;;;;;5056969;28;20036;-75
2023/04/24 03:10:18;;;;;;;5.97;4.00;;;9.70;99.90;;;;;;5054667;28;20107;-75
2023/04/24 03:12:44;;;;;;;6.25;4.18;;;9.60;99.90;;;;;;5043090;28;20041;-75
2023/04/24 03:15:10;;;;;;;6.40;4.30;;;9.60;99.90;;;;;;5029584;28;20120;-75
2023/04/24 03:17:36;;;;;;;5.87;3.93;;;9.70;99.90;;;;;;5026424;28;20072;-74
2023/04/24 03:20:05;;;;;;;6.43;3.92;;;9.70;99.90;;;;;;5031857;28;20184;-75
2023/04/24 03:22:32;;;;;;;4.50;3.70;;;9.70;99.90;;;;;;5029181;28;20044;-75
2023/04/24 03:24:58;;;;;;;5.65;3.90;;;9.70;99.90;;;;;;5046109;28;20044;-75
2023/04/24 03:27:24;;;;;;;5.40;4.00;;;9.70;99.90;;;;;;5037127;28;20049;-75
2023/04/24 03:29:53;;;;;;;6.87;4.30;;;9.70;99.90;;;;;;5053705;28;20041;-76
2023/04/24 03:32:19;;;;;;;6.95;4.80;;;9.60;99.90;;;;;;5032048;28;20568;-75
2023/04/24 03:34:45;;;;;;;8.23;6.00;;;9.70;99.90;;;;;;5022541;28;20050;-75
2023/04/24 03:37:10;;;;;;;10.10;6.93;;;9.70;99.90;;;;;;5027011;28;20041;-75
2023/04/24 03:39:36;;;;;;;12.23;7.70;;;9.60;99.90;;;;;;5037474;28;20880;-75
2023/04/24 03:42:02;;;;;;;10.63;7.63;;;9.60;99.90;;;;;;5032117;28;20045;-75
2023/04/24 03:44:28;;;;;;;12.97;9.10;;;9.60;99.90;;;;;;5033082;28;20037;-75
2023/04/24 03:46:53;;;;;;;12.30;9.57;;;9.60;99.90;;;;;;5033300;28;20098;-75
2023/04/24 03:49:20;;;;;;;14.33;9.40;;;9.60;99.90;;;;;;5027231;28;20041;-75
2023/04/24 03:51:46;;;;;;;16.77;10.75;;;9.60;99.90;;;;;;5049317;28;20661;-75
2023/04/24 03:54:11;;;;;;;15.17;10.50;;;9.60;99.90;;;;;;5023331;28;20127;-75
2023/04/24 03:56:37;;;;;;;14.23;10.70;;;9.60;99.90;;;;;;5027320;28;20095;-75
2023/04/24 03:59:03;;;;;;;14.53;11.20;;;9.60;99.90;;;;;;5022532;28;20048;-75
2023/04/24 04:01:28;;;;;;;14.40;10.17;;;9.60;99.90;;;;;;5035978;28;20041;-75
2023/04/24 04:03:54;;;;;;;11.57;8.57;;;9.50;99.90;;;;;;5030778;28;20136;-75
2023/04/24 04:06:21;;;;;;;6.50;5.70;;;9.50;99.90;;;;;;5030857;28;20045;-75
2023/04/24 04:08:47;;;;;;;6.55;4.80;;;9.50;99.90;;;;;;5031684;28;20146;-75
2023/04/24 04:11:13;;;;;;;6.50;5.00;;;9.50;99.90;;;;;;5040624;28;20073;-75
2023/04/24 04:13:38;;;;;;;6.33;4.03;;;9.40;99.90;;;;;;5026648;28;20041;-75
2023/04/24 04:16:04;;;;;;;4.90;2.67;;;9.40;99.90;;;;;;5035112;28;20498;-75
2023/04/24 04:18:30;;;;;;;4.97;2.90;;;9.40;99.90;;;;;;5028781;28;20039;-75
2023/04/24 04:20:56;;;;;;;6.20;3.73;;;9.40;99.90;;;;;;5025106;28;20056;-75
2023/04/24 04:23:22;;;;;;;6.65;4.15;;;9.30;99.90;;;;;;5016531;28;20045;-75
2023/04/24 04:25:49;;;;;;;7.28;4.78;;;9.30;99.90;;;;;;5019360;28;20051;-75
2023/04/24 04:28:15;;;;;;;8.15;5.63;;;9.30;99.90;;;;;;5034778;28;20500;-75
2023/04/24 04:30:41;;;;;;;9.23;5.60;;;9.30;99.90;;;;;;5028093;28;20041;-75
2023/04/24 04:33:08;;;;;;;7.70;5.77;;;9.30;99.90;;;;;;5039155;28;20069;-75
2023/04/24 04:35:34;;;;;;;6.32;5.15;;;9.30;99.90;;;;;;5023713;28;20045;-76
2023/04/24 04:38:00;;;;;;;5.88;4.45;;;9.20;99.90;;;;;;5041875;28;20060;-75
2023/04/24 04:40:28;;;;;;;4.85;3.13;;;9.30;99.90;;;;;;5020257;28;20045;-75
2023/04/24 04:42:53;;;;;;;2.42;1.45;;;9.30;99.90;;;;;;5026700;28;20040;-75
2023/04/24 04:45:20;;;;;;;1.70;0.83;;;9.30;99.90;;;;;;5032556;28;20052;-75
2023/04/24 04:47:46;;;;;;;2.33;1.00;;;9.30;99.90;;;;;;5045352;28;20048;-75
2023/04/24 04:50:12;;;;;;;3.35;0.80;;;9.20;99.90;;;;;;5017600;28;20425;-75
2023/04/24 04:52:38;;;;;;;4.40;1.10;;;9.20;99.90;;;;;;5032998;28;20037;-76
2023/04/24 04:55:05;;;;;;;3.37;1.30;;;9.20;99.90;;;;;;5033277;28;20048;-75
2023/04/24 04:57:30;;;;;;;4.10;1.60;;;9.20;99.90;;;;;;5049112;28;20385;-75
2023/04/24 04:59:56;;;;;;;3.97;2.03;;;9.20;99.90;;;;;;5033189;28;20048;-75
2023/04/24 05:02:22;;;;;;;3.33;2.10;;;9.20;99.90;;;;;;5048226;28;20045;-75
2023/04/24 05:04:48;;;;;;;6.37;2.90;;;9.20;99.90;;;;;;5020985;28;20038;-75
2023/04/24 05:07:13;;;;;;;6.73;2.77;;;9.20;99.90;;;;;;5030547;28;20091;-75
2023/04/24 05:09:39;;;;;;;5.93;3.90;;;9.30;99.90;;;;;;5022366;28;20052;-75
2023/04/24 05:12:05;;;;;;;9.77;4.93;;;9.30;99.90;;;;;;5034105;28;20040;-75
2023/04/24 05:14:31;;;;;;;13.90;6.20;;;9.30;99.90;;;;;;5044589;28;20036;-75
2023/04/24 05:16:56;;;;;;;13.00;6.73;;;9.30;99.90;;;;;;5024101;28;20068;-75
2023/04/24 05:19:22;;;;;;;14.50;7.10;;;9.30;99.90;;;;;;5047192;28;20056;-75
2023/04/24 05:21:48;;;;;;;15.13;7.67;;;9.30;99.90;;;;;;5030825;28;20037;-75
2023/04/24 05:24:13;;;;;;;15.97;7.57;;;9.30;99.90;;;;;;5041520;28;20128;-75
2023/04/24 05:26:39;;;;;;;14.53;7.40;;;9.30;99.90;;;;;;5036707;28;20072;-75
2023/04/24 05:29:05;;;;;;;11.60;7.83;;;9.30;99.90;;;;;;5037074;28;20051;-75
2023/04/24 05:31:31;;;;;;;14.40;7.55;;;9.30;99.90;;;;;;5031707;28;20673;-75
2023/04/24 05:33:56;;;;;;;13.53;7.70;;;9.40;99.90;;;;;;5039457;28;20053;-75
2023/04/24 05:36:22;;;;;;;10.30;6.70;;;9.30;99.90;;;;;;5049823;28;20057;-75
2023/04/24 05:38:48;;;;;;;11.17;6.10;;;9.30;99.90;;;;;;5034294;28;20041;-75
2023/04/24 05:41:14;;;;;;;7.07;4.50;;;9.30;99.90;;;;;;5031106;28;20041;-75
2023/04/24 05:43:40;;;;;;;5.30;3.22;;;9.30;99.90;;;;;;5026596;28;20686;-75
2023/04/24 05:46:06;;;;;;;5.73;2.73;;;9.30;99.90;;;;;;5026895;28;20050;-75
2023/04/24 05:48:31;;;;;;;4.87;2.57;;;9.30;99.90;;;;;;5029265;28;20041;-75
2023/04/24 05:50:57;;;;;;;6.03;2.53;;;9.30;99.90;;;;;;5028586;28;20045;-77
2023/04/24 05:53:23;;;;;;;5.30;2.57;;;9.30;99.90;;;;;;5044344;28;20045;-75
2023/04/24 05:55:49;;;;;;;4.27;2.70;;;9.20;99.90;;;;;;5030963;28;20064;-75
2023/04/24 05:58:15;;;;;;;4.90;2.67;;;9.20;99.90;;;;;;5046592;28;20087;-75
2023/04/24 06:00:42;;;;;;;3.60;2.23;;;9.20;99.90;;;;;;5032527;28;20060;-75
2023/04/24 06:03:08;;;;;;;4.63;1.90;;;9.20;99.90;;;;;;5034109;28;20461;-75
2023/04/24 06:05:34;;;;;;;3.20;2.10;;;9.20;99.90;;;;;;5028713;28;20040;-75
2023/04/24 06:08:00;;;;;;;5.32;2.40;;;9.20;99.90;;;;;;5039082;28;20052;-75
2023/04/24 06:10:27;;;;;;;2.97;1.80;;;9.20;99.90;;;;;;5034980;28;20515;-75
2023/04/24 06:12:56;;;;;;;5.32;1.77;;;9.20;99.90;;;;;;5035174;28;20040;-75
2023/04/24 06:15:21;;;;;;;4.72;2.25;;;9.20;99.90;;;;;;5034125;28;20033;-75
2023/04/24 06:17:47;;;;;;;6.43;1.83;;;9.20;99.90;;;;;;5032046;28;20048;-75
2023/04/24 06:20:13;;;;;;;3.22;1.30;;;9.20;99.90;;;;;;5027305;28;20120;-75
2023/04/24 06:22:39;;;;;;;4.90;1.57;;;9.20;99.90;;;;;;5025900;28;20148;-75
2023/04/24 06:25:07;;;;;;;5.07;1.30;;;9.20;99.90;;;;;;5032106;28;20108;-75
2023/04/24 06:27:32;;;;;;;4.63;1.35;;;9.30;99.90;;;;;;5026364;28;20091;-75
2023/04/24 06:29:58;;;;;;;5.00;1.73;;;9.20;99.90;;;;;;5027814;28;20053;-75
2023/04/24 06:32:24;;;;;;;8.27;4.57;;;9.30;99.90;;;;;;5042116;28;20040;-75
2023/04/24 06:34:53;;;;;;;10.75;5.80;;;9.20;99.90;;;;;;5048286;28;20070;-75
2023/04/24 06:37:20;;;;;;;14.65;7.30;;;9.20;99.90;;;;;;5031298;28;20075;-75
2023/04/24 06:39:46;;;;;;;15.95;8.25;;;9.10;99.90;;;;;;5027479;28;20045;-75
2023/04/24 06:42:12;;;;;;;14.90;7.88;;;9.10;99.90;;;;;;5027941;28;20044;-75
2023/04/24 06:44:40;;;;;;;19.33;9.18;;;9.00;99.90;;;;;;5045090;28;20124;-75
2023/04/24 06:47:08;;;;;;;20.83;9.55;;;9.00;99.90;;;;;;5029129;28;20041;-75
2023/04/24 06:49:35;;;;;;;18.15;10.27;;;8.90;99.90;;;;;;5026916;28;20629;-75
2023/04/24 06:52:01;;;;;;;25.23;12.95;;;8.90;99.90;;;;;;5021365;28;20113;-76
2023/04/24 06:54:26;;;;;;;23.87;12.70;;;8.90;99.90;;;;;;5022694;28;20050;-75
2023/04/24 06:56:52;;;;;;;29.13;14.00;;;8.80;99.90;;;;;;5040438;28;20417;-76
2023/04/24 06:59:18;;;;;;;27.45;14.48;;;8.80;99.90;;;;;;5046371;28;20041;-76
2023/04/24 07:01:44;;;;;;;27.40;13.37;;;8.80;99.90;;;;;;5049025;28;20071;-76
2023/04/24 07:04:09;;;;;;;24.67;13.30;;;8.70;99.90;;;;;;5031752;28;20136;-76
2023/04/24 07:06:35;;;;;;;22.63;11.63;;;8.80;99.90;;;;;;5043893;28;20040;-76
2023/04/24 07:09:03;;;;;;;19.50;11.13;;;8.70;99.90;;;;;;5029574;28;20076;-76
2023/04/24 07:11:29;;;;;;;19.88;10.82;;;8.80;99.90;;;;;;5049703;28;20043;-76
2023/04/24 07:13:55;;;;;;;21.60;11.87;;;8.80;99.90;;;;;;5021130;28;20400;-76
2023/04/24 07:16:21;;;;;;;20.08;11.10;;;8.80;99.90;;;;;;5048118;28;20044;-76
2023/04/24 07:18:47;;;;;;;25.97;13.00;;;8.70;99.90;;;;;;5028930;28;20057;-76
2023/04/24 07:21:12;;;;;;;25.17;15.20;;;8.70;99.90;;;;;;5028233;28;20462;-76
2023/04/24 07:23:38;;;;;;;25.00;14.33;;;8.70;99.90;;;;;;5036213;28;20127;-77
2023/04/24 07:26:04;;;;;;;28.90;15.60;;;8.70;99.90;;;;;;5043503;28;20037;-77
2023/04/24 07:28:31;;;;;;;28.55;15.73;;;8.70;99.90;;;;;;5028520;28;20481;-76
2023/04/24 07:30:58;;;;;;;26.70;15.57;;;8.70;99.90;;;;;;5044260;28;20098;-76
2023/04/24 07:33:24;;;;;;;21.08;13.13;;;8.70;99.90;;;;;;5021264;28;20131;-76
2023/04/24 07:35:50;;;;;;;17.63;12.10;;;8.70;99.90;;;;;;5032678;28;20073;-78
2023/04/24 07:38:16;;;;;;;18.98;13.10;;;8.60;99.90;;;;;;5048301;28;20033;-76
2023/04/24 07:40:41;;;;;;;21.40;13.00;;;8.60;99.90;;;;;;5026428;28;20554;-76
2023/04/24 07:43:07;;;;;;;22.23;13.43;;;8.60;99.90;;;;;;5035488;28;20141;-76
2023/04/24 07:45:36;;;;;;;18.13;11.20;;;8.60;99.90;;;;;;5028152;28;20045;-75
2023/04/24 07:48:02;;;;;;;18.40;10.80;;;8.60;99.90;;;;;;5044587;28;20038;-77
2023/04/24 07:50:28;;;;;;;16.73;9.90;;;8.60;99.90;;;;;;5029261;28;20045;-76
2023/04/24 07:52:54;;;;;;;14.63;8.90;;;8.60;99.90;;;;;;5047824;28;20107;-76
2023/04/24 07:55:20;;;;;;;19.40;8.60;;;8.70;99.90;;;;;;5028187;28;20075;-76
2023/04/24 07:57:46;;;;;;;19.27;9.27;;;8.70;99.90;;;;;;5030705;28;20041;-76
2023/04/24 08:00:12;;;;;;;14.60;8.83;;;8.70;99.90;;;;;;5030839;28;20037;-76
2023/04/24 08:02:38;;;;;;;12.77;6.93;;;8.80;99.90;;;;;;5032590;28;20044;-76
2023/04/24 08:05:04;;;;;;;11.87;7.50;;;8.90;99.90;;;;;;5032409;28;20075;-77
2023/04/24 08:07:29;;;;;;;12.37;7.17;;;9.00;99.90;;;;;;5044747;28;20506;-76
2023/04/24 08:09:55;;;;;;;13.40;6.97;;;9.10;99.90;;;;;;5037257;28;20299;-75
2023/04/24 08:12:21;;;;;;;11.93;7.80;;;9.20;99.90;;;;;;5026298;28;20039;-76
2023/04/24 08:14:46;;;;;;;10.90;6.03;;;9.40;99.90;;;;;;5030227;28;20041;-76
2023/04/24 08:17:12;;;;;;;12.17;5.97;;;9.50;99.90;;;;;;5048707;28;20052;-76
2023/04/24 08:19:42;;;;;;;13.53;6.53;;;9.40;99.90;;;;;;5036084;28;20037;-76
2023/04/24 08:22:07;;;;;;;18.95;7.32;;;9.40;99.90;;;;;;5032503;28;20037;-76
2023/04/24 08:24:33;;;;;;;14.30;7.33;;;9.30;99.90;;;;;;5046418;28;20048;-76
2023/04/24 08:26:59;;;;;;;18.43;7.23;;;9.30;99.90;;;;;;5046570;28;20591;-76
2023/04/24 08:29:25;;;;;;;13.87;6.60;;;9.20;99.90;;;;;;5031802;28;20107;-75
2023/04/24 08:31:50;;;;;;;11.37;6.57;;;9.10;99.90;;;;;;5035941;28;20071;-76
2023/04/24 08:34:16;;;;;;;16.30;5.43;;;9.10;99.90;;;;;;5051467;28;20302;-75
2023/04/24 08:36:42;;;;;;;13.93;6.57;;;9.10;99.90;;;;;;5029122;28;20037;-77
2023/04/24 08:39:08;;;;;;;16.83;6.20;;;9.10;99.90;;;;;;5051090;28;20082;-76
2023/04/24 08:41:35;;;;;;;9.27;5.27;;;9.20;99.90;;;;;;5049766;28;20032;-76
2023/04/24 08:44:02;;;;;;;11.35;4.97;;;9.20;99.90;;;;;;5043035;28;20048;-75
2023/04/24 08:46:30;;;;;;;12.23;5.35;;;9.30;99.90;;;;;;5054042;28;20037;-75
2023/04/24 08:48:56;;;;;;;11.77;4.63;;;9.40;99.90;;;;;;5035403;28;20123;-75
2023/04/24 08:51:23;;;;;;;9.27;3.85;;;9.60;99.90;;;;;;5034010;28;20040;-76
2023/04/24 08:53:51;;;;;;;8.98;3.53;;;9.70;99.90;;;;;;5034035;28;20037;-76
2023/04/24 08:56:17;;;;;;;11.38;4.10;;;9.80;99.90;;;;;;5034975;28;20121;-75
2023/04/24 08:58:43;;;;;;;9.82;3.42;;;9.90;99.90;;;;;;5053526;28;20079;-77
2023/04/24 09:01:10;;;;;;;15.95;4.28;;;10.00;99.90;;;;;;5033846;28;20037;-77
2023/04/24 09:03:36;;;;;;;8.75;2.70;;;10.10;99.90;;;;;;5044662;28;20037;-76
2023/04/24 09:06:02;;;;;;;13.18;3.03;;;10.20;99.90;;;;;;5034555;28;20115;-76
2023/04/24 09:08:29;;;;;;;12.75;2.95;;;10.30;99.90;;;;;;5052708;28;20048;-77
2023/04/24 09:10:55;;;;;;;6.25;3.00;;;10.40;99.90;;;;;;5043927;28;20033;-75
2023/04/24 09:13:20;;;;;;;12.90;3.43;;;10.50;99.90;;;;;;5030489;28;20091;-76
2023/04/24 09:15:46;;;;;;;13.70;4.20;;;10.60;99.90;;;;;;5023093;28;20051;-76
2023/04/24 09:18:12;;;;;;;7.63;2.80;;;10.60;99.90;;;;;;5044008;28;20206;-76
2023/04/24 09:20:57;;;;;;;14.10;3.40;;;10.40;99.90;;;;;;5046252;28;20044;-76
2023/04/24 09:23:23;;;;;;;12.15;3.58;;;10.30;99.90;;;;;;5028756;28;20068;-76
2023/04/24 09:25:55;;;;;;;13.87;3.90;;;10.10;99.90;;;;;;5045659;28;20068;-76
2023/04/24 09:28:32;;;;;;;9.02;3.10;;;10.00;99.90;;;;;;5044465;28;20041;-76
2023/04/24 09:31:14;;;;;;;10.70;2.70;;;9.90;99.90;;;;;;5032308;28;20094;-77
2023/04/24 09:33:40;;;;;;;15.35;3.30;;;9.90;99.90;;;;;;5048940;28;20063;-76
2023/04/24 09:36:06;;;;;;;11.35;3.17;;;9.80;99.90;;;;;;5043567;28;20121;-76
2023/04/24 09:38:33;;;;;;;9.53;2.40;;;9.70;99.90;;;;;;5047757;28;20124;-76
2023/04/24 09:41:04;;;;;;;11.82;2.70;;;9.60;99.90;;;;;;5046421;28;20779;-76
2023/04/24 09:43:30;;;;;;;12.30;2.72;;;9.50;99.90;;;;;;5032510;28;20037;-76
2023/04/24 09:46:05;;;;;;;8.77;2.90;;;9.40;99.90;;;;;;5029749;28;20092;-76
2023/04/24 09:48:37;;;;;;;12.80;2.85;;;9.30;99.90;;;;;;5031487;28;20134;-76
2023/04/24 09:51:06;;;;;;;10.82;2.60;;;9.30;99.90;;;;;;5053483;28;20063;-77
2023/04/24 09:53:32;;;;;;;11.48;2.47;;;9.30;99.90;;;;;;5049854;28;20041;-76
2023/04/24 09:56:09;;;;;;;8.35;2.10;;;9.40;99.90;;;;;;5044093;28;20037;-76
2023/04/24 09:58:39;;;;;;;7.15;2.00;;;9.50;99.90;;;;;;5027034;28;20037;-76
2023/04/24 10:01:05;;;;;;;14.27;2.10;;;9.50;99.90;;;;;;5041896;28;20076;-77
2023/04/24 10:03:32;;;;;;;11.67;2.30;;;9.50;99.90;;;;;;5023347;28;20083;-76
2023/04/24 10:06:02;;;;;;;11.07;2.65;;;9.60;99.90;;;;;;5031560;28;20384;-76
2023/04/24 10:08:34;;;;;;;11.98;2.15;;;9.60;99.90;;;;;;5031955;28;20162;-76
2023/04/24 10:11:00;;;;;;;18.02;2.45;;;9.60;99.90;;;;;;5023307;28;20116;-76
2023/04/24 10:13:27;;;;;;;10.07;1.95;;;9.60;99.90;;;;;;5023681;28;20048;-77
2023/04/24 10:15:53;;;;;;;6.90;1.70;;;9.60;99.90;;;;;;5047219;28;20041;-75
2023/04/24 10:18:21;;;;;;;8.73;1.90;;;9.60;99.90;;;;;;5026783;28;20636;-76
2023/04/24 10:20:50;;;;;;;10.35;1.52;;;9.60;99.90;;;;;;5031826;28;20038;-76
2023/04/24 10:23:19;;;;;;;8.07;1.48;;;9.70;99.90;;;;;;5029431;28;20110;-76
2023/04/24 10:25:45;;;;;;;7.95;1.50;;;9.80;99.90;;;;;;5023650;28;20037;-76
2023/04/24 10:28:11;;;;;;;8.80;1.40;;;9.80;99.90;;;;;;5041944;28;20040;-76
2023/04/24 10:30:38;;;;;;;12.00;2.10;;;9.90;99.90;;;;;;5027438;28;20674;-77
2023/04/24 10:33:07;;;;;;;6.80;1.77;;;9.90;99.90;;;;;;5042301;28;20041;-76
2023/04/24 10:35:37;;;;;;;7.15;1.67;;;9.90;99.90;;;;;;5030868;28;20049;-76
2023/04/24 10:38:09;;;;;;;8.27;2.28;;;9.80;99.90;;;;;;5023161;28;20064;-77
2023/04/24 10:40:36;;;;;;;11.60;1.60;;;9.90;99.90;;;;;;5043074;28;20056;-75
2023/04/24 10:43:08;;;;;;;11.40;1.58;;;10.00;99.90;;;;;;5043678;28;20124;-75
2023/04/24 10:45:34;;;;;;;10.25;1.50;;;10.00;99.90;;;;;;5030911;28;20507;-75
2023/04/24 10:48:10;;;;;;;6.07;1.40;;;10.00;99.90;;;;;;5042263;28;20063;-75
2023/04/24 10:50:43;;;;;;;7.68;1.38;;;9.90;99.90;;;;;;5031663;28;20052;-76
2023/04/24 10:53:29;;;;;;;5.25;1.25;;;9.80;99.90;;;;;;5031865;28;20037;-76
2023/04/24 10:56:06;;;;;;;5.55;1.00;;;9.70;99.90;;;;;;5032137;28;20194;-76
2023/04/24 10:58:49;;;;;;;3.88;1.13;;;9.50;99.90;;;;;;5048986;28;20077;-76
2023/04/24 11:01:26;;;;;;;7.28;1.10;;;9.40;99.90;;;;;;5024598;28;20110;-75
2023/04/24 11:03:56;;;;;;;6.43;1.50;;;9.20;99.90;;;;;;5021196;28;20041;-76
2023/04/24 11:06:35;;;;;;;5.63;1.00;;;9.20;99.90;;;;;;5047938;28;20485;-76
2023/04/24 11:09:12;;;;;;;10.38;1.23;;;9.20;99.90;;;;;;5046980;28;20588;-76
2023/04/24 11:11:44;;;;;;;6.18;1.38;;;9.20;99.90;;;;;;5044067;28;20125;-76
2023/04/24 11:14:10;;;;;;;6.97;1.35;;;9.40;99.90;;;;;;5031735;28;20025;-76
2023/04/24 11:16:42;;;;;;;6.13;1.67;;;9.50;99.90;;;;;;5036405;28;20041;-76
2023/04/24 11:19:13;;;;;;;6.00;1.02;;;9.70;99.90;;;;;;5026160;28;20047;-76
2023/04/24 11:21:44;;;;;;;5.55;0.82;;;9.90;99.90;;;;;;5024619;28;20037;-76
2023/04/24 11:24:38;;;;;;;5.15;0.70;;;10.10;99.90;;;;;;5025230;28;20389;-76
2023/04/24 11:27:04;;;;;;;4.03;0.98;;;10.30;99.90;;;;;;5021468;28;20072;-75
2023/04/24 11:29:39;;;;;;;7.07;0.90;;;10.40;99.90;;;;;;5031010;28;20037;-76
2023/04/24 11:32:38;;;;;;;;;;;10.60;99.90;;;;;;5032440;28;20041;-75
2023/04/24 11:35:14;;;;;;;11.27;0.95;;;10.60;99.90;;;;;;5007739;28;20352;-76
2023/04/24 11:37:46;;;;;;;6.28;0.75;;;10.50;99.90;;;;;;5027754;28;20053;-76
2023/04/24 11:40:13;;;;;;;3.75;0.80;;;10.50;99.90;;;;;;5030686;28;20683;-76
2023/04/24 11:42:40;;;;;;;5.60;0.65;;;10.60;99.90;;;;;;5043851;28;20044;-76
2023/04/24 11:45:18;;;;;;;4.60;0.60;;;10.70;99.90;;;;;;5029313;28;20240;-76
2023/04/24 11:47:44;;;;;;;5.65;0.93;;;10.60;99.90;;;;;;5043362;28;20041;-76
2023/04/24 11:50:15;;;;;;;5.80;0.93;;;10.60;99.90;;;;;;5031874;28;20048;-76
2023/04/24 11:52:46;;;;;;;6.93;0.80;;;10.50;99.90;;;;;;5030637;28;20037;-78
2023/04/24 11:55:14;;;;;;;8.32;0.80;;;10.40;99.90;;;;;;5041863;28;20044;-76
2023/04/24 11:57:51;;;;;;;5.60;0.95;;;10.30;99.90;;;;;;5028226;28;20037;-75
2023/04/24 12:00:20;;;;;;;6.90;0.70;;;10.30;99.90;;;;;;5032112;28;20049;-75
2023/04/24 12:02:46;;;;;;;6.50;0.60;;;10.20;99.90;;;;;;5041720;28;20508;-76
2023/04/24 12:05:22;;;;;;;4.38;0.50;;;10.10;99.90;;;;;;5018852;28;20080;-75
2023/04/24 12:07:49;;;;;;;4.50;0.75;;;10.20;99.90;;;;;;5044505;28;21439;-76
2023/04/24 12:10:19;;;;;;;6.32;0.75;;;10.40;99.90;;;;;;5025020;28;20041;-76
2023/04/24 12:12:46;;;;;;;4.70;0.77;;;10.50;99.90;;;;;;5030436;28;20037;-75
2023/04/24 12:15:12;;;;;;;5.93;1.00;;;10.60;99.90;;;;;;5038157;28;20287;-76
2023/04/24 12:17:42;;;;;;;3.57;0.47;;;10.60;99.90;;;;;;5019938;28;20600;-75
2023/04/24 12:20:17;;;;;;;7.18;0.75;;;10.60;99.90;;;;;;5022521;28;20072;-76
2023/04/24 12:22:47;;;;;;;6.27;0.83;;;10.60;99.90;;;;;;5026621;28;20116;-76
2023/04/24 12:25:18;;;;;;;3.13;0.40;;;10.80;99.90;;;;;;5028186;28;20287;-75
2023/04/24 12:27:44;;;;;;;8.60;0.73;;;11.00;99.90;;;;;;5048363;28;20358;-75
2023/04/24 12:30:18;;;;;;;3.20;0.40;;;11.10;99.90;;;;;;5027053;28;20079;-77
2023/04/24 12:32:54;;;;;;;5.17;0.40;;;11.30;99.90;;;;;;5045599;28;20306;-76
2023/04/24 12:35:28;;;;;;;3.63;0.57;;;11.50;99.90;;;;;;5029701;28;20279;-75
2023/04/24 12:37:55;;;;;;;7.43;0.83;;;11.60;99.90;;;;;;5031314;28;20363;-76
2023/04/24 12:40:21;;;;;;;3.37;0.40;;;11.50;99.90;;;;;;5031665;28;20429;-75
2023/04/24 12:42:49;;;;;;;1.67;0.23;;;11.50;99.90;;;;;;5045296;28;20063;-76
2023/04/24 12:45:17;;;;;;;4.07;0.30;;;11.50;99.90;;;;;;5028497;28;20279;-75
2023/04/24 12:47:44;;;;;;;1.80;0.23;;;11.50;99.90;;;;;;5022482;28;20646;-76